createdAt,value
2019-05-12T00:00:43.765Z,23.03
2019-05-12T00:03:14.485Z,21.97
2019-05-12T00:05:45.206Z,24.63
2019-05-12T00:08:18.721Z,27.90
2019-05-12T00:10:48.341Z,29.47
2019-05-12T00:13:19.149Z,31.13
2019-05-12T00:15:49.909Z,30.47
2019-05-12T00:18:20.584Z,28.23
2019-05-12T00:20:51.214Z,31.17
2019-05-12T00:23:27.455Z,31.17
2019-05-12T00:25:54.424Z,30.60
2019-05-12T00:28:25.010Z,29.53
2019-05-12T00:30:57.858Z,29.20
2019-05-12T00:33:28.319Z,32.33
2019-05-12T00:35:58.979Z,33.13
2019-05-12T00:38:29.655Z,35.40
2019-05-12T00:41:00.190Z,30.60
2019-05-12T00:43:30.723Z,30.20
2019-05-12T00:46:01.226Z,29.93
2019-05-12T00:48:31.715Z,32.67
2019-05-12T00:51:02.231Z,29.90
2019-05-12T00:53:39.892Z,31.70
2019-05-12T00:56:05.245Z,30.97
2019-05-12T00:58:38.118Z,30.87
2019-05-12T01:01:08.295Z,29.17
2019-05-12T01:03:39.029Z,30.70
2019-05-12T01:06:09.659Z,31.77
2019-05-12T01:08:40.329Z,34.30
2019-05-12T01:11:11.059Z,30.50
2019-05-12T01:13:41.666Z,32.33
2019-05-12T01:16:12.329Z,36.30
2019-05-12T01:18:42.940Z,31.67
2019-05-12T01:21:13.622Z,31.13
2019-05-12T01:23:56.266Z,35.03
2019-05-12T01:26:17.961Z,31.43
2019-05-12T01:28:48.923Z,32.63
2019-05-12T01:31:21.223Z,30.13
2019-05-12T01:33:51.799Z,30.33
2019-05-12T01:36:22.385Z,33.00
2019-05-12T01:38:53.024Z,33.50
2019-05-12T01:41:23.630Z,29.67
2019-05-12T01:43:54.192Z,31.73
2019-05-12T01:46:24.722Z,31.00
2019-05-12T01:48:55.305Z,33.63
2019-05-12T01:51:28.323Z,32.37
2019-05-12T01:54:10.977Z,33.70
2019-05-12T01:56:30.446Z,32.10
2019-05-12T01:59:01.216Z,32.13
2019-05-12T02:01:31.836Z,36.30
2019-05-12T02:04:02.339Z,31.10
2019-05-12T02:06:33.029Z,33.77
2019-05-12T02:09:07.987Z,36.43
2019-05-12T02:11:38.239Z,31.37
2019-05-12T02:14:09.377Z,33.10
2019-05-12T02:16:40.100Z,33.17
2019-05-12T02:19:10.670Z,34.17
2019-05-12T02:21:41.304Z,30.30
2019-05-12T02:24:23.319Z,30.50
2019-05-12T02:26:44.183Z,28.87
2019-05-12T02:29:14.840Z,27.30
2019-05-12T02:31:45.493Z,30.97
2019-05-12T02:34:16.100Z,24.67
2019-05-12T02:36:46.741Z,23.10
2019-05-12T02:39:17.380Z,22.47
2019-05-12T02:41:48.057Z,23.43
2019-05-12T02:44:18.653Z,23.37
2019-05-12T02:46:49.195Z,26.17
2019-05-12T02:49:20.440Z,22.63
2019-05-12T02:51:54.522Z,21.97
2019-05-12T02:54:26.988Z,21.93
2019-05-12T02:56:57.835Z,21.90
2019-05-12T02:59:30.850Z,23.30
2019-05-12T03:02:05.287Z,27.73
2019-05-12T03:04:36.782Z,26.50
2019-05-12T03:07:07.519Z,22.03
2019-05-12T03:09:38.126Z,22.97
2019-05-12T03:12:08.911Z,23.80
2019-05-12T03:14:41.126Z,24.20
2019-05-12T03:17:15.211Z,23.47
2019-05-12T03:19:44.868Z,18.30
2019-05-12T03:22:15.713Z,23.83
2019-05-12T03:25:05.059Z,21.53
2019-05-12T03:27:18.621Z,22.80
2019-05-12T03:29:49.145Z,18.03
2019-05-12T03:32:19.751Z,19.90
2019-05-12T03:34:50.340Z,17.30
2019-05-12T03:37:20.890Z,17.03
2019-05-12T03:39:54.007Z,18.00
2019-05-12T03:42:25.136Z,17.97
2019-05-12T03:44:56.120Z,18.10
2019-05-12T03:47:26.752Z,18.87
2019-05-12T03:49:57.305Z,21.43
2019-05-12T03:52:28.415Z,21.30
2019-05-12T03:54:58.950Z,24.13
2019-05-12T03:57:29.556Z,19.73
2019-05-12T04:00:00.052Z,26.13
2019-05-12T04:02:30.522Z,23.77
2019-05-12T04:05:04.941Z,27.47
2019-05-12T04:07:34.422Z,24.20
2019-05-12T04:10:05.555Z,25.33
2019-05-12T04:12:36.235Z,21.77
2019-05-12T04:15:07.448Z,19.03
2019-05-12T04:17:38.060Z,17.97
2019-05-12T04:20:08.811Z,15.83
2019-05-12T04:22:39.349Z,19.37
2019-05-12T04:25:10.210Z,17.70
2019-05-12T04:27:41.011Z,20.33
2019-05-12T04:30:14.414Z,17.77
2019-05-12T04:32:45.181Z,18.30
2019-05-12T04:35:16.213Z,18.87
2019-05-12T04:37:46.871Z,18.33
2019-05-12T04:40:17.659Z,24.23
2019-05-12T04:42:48.180Z,16.90
2019-05-12T04:45:18.851Z,19.00
2019-05-12T04:47:49.370Z,19.47
2019-05-12T04:50:20.023Z,14.70
2019-05-12T04:52:50.495Z,18.03
2019-05-12T04:55:21.027Z,20.87
2019-05-12T04:57:54.464Z,15.27
2019-05-12T05:00:25.670Z,16.37
2019-05-12T05:02:56.385Z,12.60
2019-05-12T05:05:27.064Z,12.57
2019-05-12T05:07:57.720Z,15.60
2019-05-12T05:10:28.445Z,12.83
2019-05-12T05:12:59.048Z,15.17
2019-05-12T05:15:29.616Z,11.97
2019-05-12T05:18:00.345Z,14.03
2019-05-12T05:20:31.113Z,16.33
2019-05-12T05:23:03.486Z,17.50
2019-05-12T05:25:34.911Z,13.90
2019-05-12T05:28:06.070Z,11.33
2019-05-12T05:30:36.679Z,10.60
2019-05-12T05:33:07.306Z,11.13
2019-05-12T05:35:39.837Z,12.33
2019-05-12T05:38:10.854Z,9.80
2019-05-12T05:40:43.494Z,13.43
2019-05-12T05:43:18.397Z,13.50
2019-05-12T05:45:47.109Z,11.37
2019-05-12T05:48:17.665Z,11.97
2019-05-12T05:50:48.244Z,15.00
2019-05-12T05:53:19.843Z,13.40
2019-05-12T05:55:58.635Z,13.80
2019-05-12T05:58:25.931Z,15.47
2019-05-12T06:01:03.012Z,10.87
2019-05-12T06:03:28.112Z,10.70
2019-05-12T06:06:01.339Z,10.60
2019-05-12T06:08:30.938Z,11.27
2019-05-12T06:11:01.445Z,9.77
2019-05-12T06:13:34.477Z,13.20
2019-05-12T06:16:04.581Z,10.00
2019-05-12T06:18:35.208Z,14.20
2019-05-12T06:21:05.833Z,11.40
2019-05-12T06:23:39.175Z,12.43
2019-05-12T06:26:08.600Z,9.47
2019-05-12T06:28:41.168Z,9.37
2019-05-12T06:31:13.836Z,13.10
2019-05-12T06:33:44.695Z,9.13
2019-05-12T06:36:22.284Z,8.77
2019-05-12T06:38:47.930Z,9.57
2019-05-12T06:41:20.951Z,8.73
2019-05-12T06:43:54.036Z,8.40
2019-05-12T06:46:25.935Z,9.50
2019-05-12T06:49:00.312Z,9.37
2019-05-12T06:51:30.695Z,10.37
2019-05-12T06:54:07.288Z,7.57
2019-05-12T06:56:34.343Z,11.43
2019-05-12T06:59:09.824Z,9.33
2019-05-12T07:01:39.729Z,10.20
2019-05-12T07:04:10.934Z,12.57
2019-05-12T07:06:44.043Z,9.27
2019-05-12T07:09:24.228Z,12.27
2019-05-12T07:11:53.550Z,16.27
2019-05-12T07:14:23.235Z,14.90
2019-05-12T07:17:01.752Z,13.83
2019-05-12T07:19:29.724Z,15.33
2019-05-12T07:22:00.285Z,12.57
2019-05-12T07:24:31.330Z,15.93
2019-05-12T07:27:08.771Z,7.83
2019-05-12T07:29:35.171Z,10.33
2019-05-12T07:32:14.775Z,9.20
2019-05-12T07:34:38.760Z,10.57
2019-05-12T07:37:09.625Z,7.00
2019-05-12T07:39:45.449Z,8.73
2019-05-12T07:42:15.340Z,5.70
2019-05-12T07:44:48.102Z,5.77
2019-05-12T07:47:24.134Z,5.10
2019-05-12T07:49:53.623Z,6.47
2019-05-12T07:52:24.387Z,6.20
2019-05-12T07:54:55.935Z,7.70
2019-05-12T07:57:27.370Z,6.23
2019-05-12T07:59:58.079Z,6.90
2019-05-12T08:02:31.702Z,6.53
2019-05-12T08:05:03.673Z,5.37
2019-05-12T08:07:33.817Z,5.07
2019-05-12T08:10:07.256Z,6.80
2019-05-12T08:12:37.480Z,7.93
2019-05-12T08:15:09.729Z,7.83
2019-05-12T08:17:40.880Z,7.87
2019-05-12T08:20:13.534Z,6.00
2019-05-12T08:22:44.320Z,9.60
2019-05-12T08:25:18.693Z,5.53
2019-05-12T08:27:50.296Z,10.83
2019-05-12T08:30:45.817Z,8.70
2019-05-12T08:33:11.797Z,8.97
2019-05-12T08:35:43.847Z,7.63
2019-05-12T08:38:14.873Z,9.03
2019-05-12T08:40:50.711Z,8.93
2019-05-12T08:43:17.980Z,7.73
2019-05-12T08:45:48.805Z,8.33
2019-05-12T08:48:24.135Z,7.03
2019-05-12T08:50:54.592Z,5.37
2019-05-12T08:53:26.054Z,6.30
2019-05-12T08:55:57.285Z,7.63
2019-05-12T08:58:33.922Z,6.67
2019-05-12T09:01:00.896Z,5.30
2019-05-12T09:03:33.536Z,5.47
2019-05-12T09:06:09.230Z,6.27
2019-05-12T09:08:43.959Z,6.90
2019-05-12T09:11:10.375Z,7.27
2019-05-12T09:13:43.232Z,5.90
2019-05-12T09:16:13.986Z,5.70
2019-05-12T09:18:44.875Z,5.07
2019-05-12T09:21:15.707Z,5.40
2019-05-12T09:23:46.875Z,7.03
2019-05-12T09:26:26.709Z,4.70
2019-05-12T09:28:54.270Z,5.00
2019-05-12T09:31:29.320Z,5.13
2019-05-12T09:33:57.897Z,4.00
2019-05-12T09:36:33.639Z,6.50
2019-05-12T09:39:06.392Z,3.67
2019-05-12T09:41:42.501Z,4.90
2019-05-12T09:44:09.655Z,4.67
2019-05-12T09:46:40.394Z,7.33
2019-05-12T09:49:11.111Z,5.43
2019-05-12T09:51:45.930Z,5.57
2019-05-12T09:54:19.295Z,5.13
2019-05-12T09:56:57.793Z,5.10
2019-05-12T09:59:25.616Z,4.47
2019-05-12T10:01:55.025Z,5.53
2019-05-12T10:04:25.730Z,5.57
2019-05-12T10:06:56.572Z,6.10
2019-05-12T10:09:29.160Z,5.00
2019-05-12T10:12:06.360Z,4.07
2019-05-12T10:14:40.702Z,5.50
2019-05-12T10:17:25.558Z,5.97
2019-05-12T10:19:58.140Z,5.77
2019-05-12T10:22:39.938Z,5.67
2019-05-12T10:25:11.024Z,5.43
2019-05-12T10:27:44.337Z,5.07
2019-05-12T10:30:23.474Z,5.30
2019-05-12T10:32:54.515Z,5.63
2019-05-12T10:35:28.424Z,5.97
2019-05-12T10:38:06.298Z,6.67
2019-05-12T10:40:37.440Z,6.27
2019-05-12T10:43:11.183Z,9.43
2019-05-12T10:45:44.191Z,4.90
2019-05-12T10:48:18.065Z,6.57
2019-05-12T10:50:49.735Z,5.70
2019-05-12T10:53:27.565Z,5.03
2019-05-12T10:56:02.691Z,10.40
2019-05-12T10:58:33.685Z,6.43
2019-05-12T11:01:10.204Z,5.03
2019-05-12T11:03:42.896Z,6.13
2019-05-12T11:06:14.817Z,5.47
2019-05-12T11:08:51.189Z,5.37
2019-05-12T11:11:25.219Z,5.03
2019-05-12T11:13:56.410Z,6.27
2019-05-12T11:16:31.090Z,5.47
2019-05-12T11:19:06.455Z,7.40
2019-05-12T11:21:37.073Z,6.97
2019-05-12T11:24:13.725Z,6.97
2019-05-12T11:26:43.926Z,7.37
2019-05-12T11:29:15.870Z,5.70
2019-05-12T11:31:53.818Z,6.00
2019-05-12T11:34:30.268Z,8.40
2019-05-12T11:37:03.252Z,7.93
2019-05-12T11:39:40.161Z,4.60
2019-05-12T11:42:13.801Z,6.00
2019-05-12T11:44:45.849Z,6.70
2019-05-12T11:47:24.085Z,7.93
2019-05-12T11:49:58.483Z,7.77
2019-05-12T11:52:33.495Z,6.93
2019-05-12T11:55:07.221Z,7.03
2019-05-12T11:57:39.165Z,10.27
2019-05-12T12:00:25.201Z,8.20
2019-05-12T12:02:57.315Z,8.63
2019-05-12T12:05:28.231Z,6.23
2019-05-12T12:08:03.716Z,8.37
2019-05-12T12:10:39.910Z,6.93
2019-05-12T12:13:14.272Z,6.90
2019-05-12T12:15:44.959Z,7.03
2019-05-12T12:18:16.125Z,8.90
2019-05-12T12:20:55.097Z,7.33
2019-05-12T12:23:25.175Z,6.53
2019-05-12T12:25:59.026Z,5.43
2019-05-12T12:28:34.397Z,9.57
2019-05-12T12:31:13.220Z,6.50
2019-05-12T12:33:53.623Z,9.30
2019-05-12T12:36:25.409Z,7.50
2019-05-12T12:38:57.360Z,7.40
2019-05-12T12:41:34.221Z,8.20
2019-05-12T12:44:07.311Z,7.70
2019-05-12T12:46:44.146Z,7.57
2019-05-12T12:49:16.348Z,6.53
2019-05-12T12:51:49.383Z,6.67
2019-05-12T12:54:22.916Z,6.93
2019-05-12T12:57:00.120Z,8.37
2019-05-12T12:59:30.419Z,7.70
2019-05-12T13:02:07.457Z,6.30
2019-05-12T13:04:39.429Z,6.20
2019-05-12T13:07:13.578Z,8.27
2019-05-12T13:09:48.263Z,8.57
2019-05-12T13:12:23.690Z,6.43
2019-05-12T13:14:58.186Z,5.70
2019-05-12T13:17:39.969Z,5.60
2019-05-12T13:20:08.276Z,9.73
2019-05-12T13:22:44.364Z,6.23
2019-05-12T13:25:18.124Z,7.90
2019-05-12T13:27:55.383Z,8.57
2019-05-12T13:30:26.383Z,7.40
2019-05-12T13:33:08.702Z,17.37
2019-05-12T13:35:40.765Z,6.73
2019-05-12T13:38:16.420Z,7.33
2019-05-12T13:40:54.283Z,6.60
2019-05-12T13:43:27.199Z,8.70
2019-05-12T13:45:58.026Z,8.10
2019-05-12T13:48:32.445Z,8.43
2019-05-12T13:51:11.812Z,9.73
2019-05-12T13:53:40.444Z,7.97
2019-05-12T13:56:13.635Z,7.60
2019-05-12T13:58:45.917Z,5.93
2019-05-12T14:01:24.680Z,10.33
2019-05-12T14:03:57.130Z,10.17
2019-05-12T14:06:35.833Z,11.47
2019-05-12T14:09:04.282Z,10.20
2019-05-12T14:11:38.165Z,9.53
2019-05-12T14:14:14.931Z,11.23
2019-05-12T14:16:53.578Z,9.97
2019-05-12T14:19:20.870Z,13.77
2019-05-12T14:21:56.860Z,11.47
2019-05-12T14:24:33.317Z,12.43
2019-05-12T14:27:04.120Z,8.83
2019-05-12T14:29:39.895Z,12.43
2019-05-12T14:32:17.559Z,9.70
2019-05-12T14:34:51.025Z,8.27
2019-05-12T14:37:25.911Z,9.83
2019-05-12T14:39:56.596Z,9.77
2019-05-12T14:42:34.662Z,7.20
2019-05-12T14:45:05.549Z,10.13
2019-05-12T14:47:43.696Z,6.90
2019-05-12T14:50:18.930Z,9.20
2019-05-12T14:52:59.759Z,8.03
2019-05-12T14:55:44.878Z,8.67
2019-05-12T14:58:23.751Z,8.97
2019-05-12T15:00:58.247Z,7.67
2019-05-12T15:03:30.671Z,8.50
2019-05-12T15:06:09.415Z,8.90
2019-05-12T15:08:43.676Z,8.13
2019-05-12T15:11:16.000Z,9.90
2019-05-12T15:13:47.815Z,7.63
2019-05-12T15:16:20.075Z,8.80
2019-05-12T15:18:54.309Z,7.30
2019-05-12T15:21:31.445Z,8.20
2019-05-12T15:24:03.963Z,9.03
2019-05-12T15:26:38.025Z,11.83
2019-05-12T15:29:19.768Z,9.80
2019-05-12T15:31:54.167Z,10.53
2019-05-12T15:34:24.544Z,10.40
2019-05-12T15:37:00.349Z,8.63
2019-05-12T15:39:33.571Z,7.27
2019-05-12T15:42:06.365Z,8.77
2019-05-12T15:44:37.119Z,8.07
2019-05-12T15:47:10.085Z,8.37
2019-05-12T15:49:40.731Z,7.73
2019-05-12T15:52:13.980Z,6.33
2019-05-12T15:55:05.329Z,8.77
2019-05-12T15:57:38.455Z,7.10
2019-05-12T16:00:18.811Z,6.70
2019-05-12T16:02:53.303Z,6.70
2019-05-12T16:05:29.397Z,8.60
2019-05-12T16:08:03.638Z,5.67
2019-05-12T16:10:34.704Z,10.27
2019-05-12T16:13:06.244Z,13.03
2019-05-12T16:15:43.689Z,9.40
2019-05-12T16:18:19.678Z,6.73
2019-05-12T16:20:59.073Z,8.37
2019-05-12T16:23:30.293Z,9.90
2019-05-12T16:26:10.248Z,8.13
2019-05-12T16:28:40.861Z,8.27
2019-05-12T16:31:14.271Z,5.33
2019-05-12T16:34:00.984Z,8.47
2019-05-12T16:36:29.359Z,7.57
2019-05-12T16:39:09.141Z,7.53
2019-05-12T16:41:47.084Z,7.80
2019-05-12T16:44:23.115Z,8.60
2019-05-12T16:46:53.461Z,7.20
2019-05-12T16:49:33.286Z,8.13
2019-05-12T16:51:59.219Z,8.27
2019-05-12T16:54:33.447Z,6.53
2019-05-12T16:57:15.599Z,9.00
2019-05-12T16:59:44.813Z,8.13
2019-05-12T17:02:18.895Z,8.27
2019-05-12T17:04:49.609Z,8.17
2019-05-12T17:07:27.994Z,8.27
2019-05-12T17:10:11.778Z,11.73
2019-05-12T17:12:37.855Z,10.17
2019-05-12T17:15:19.331Z,7.97
2019-05-12T17:17:59.285Z,14.77
2019-05-12T17:20:27.869Z,9.43
2019-05-12T17:23:00.413Z,9.27
2019-05-12T17:25:34.952Z,8.67
2019-05-12T17:28:08.818Z,9.20
2019-05-12T17:30:43.663Z,10.33
2019-05-12T17:33:23.103Z,8.97
2019-05-12T17:35:48.192Z,10.77
2019-05-12T17:38:21.589Z,8.80
2019-05-12T17:41:00.431Z,10.27
2019-05-12T17:43:29.263Z,8.90
2019-05-12T17:46:04.636Z,11.17
2019-05-12T17:48:44.932Z,10.10
2019-05-12T17:51:26.789Z,10.67
2019-05-12T17:53:55.210Z,11.27
2019-05-12T17:56:34.070Z,11.10
2019-05-12T17:59:09.178Z,14.00
2019-05-12T18:01:43.571Z,9.93
2019-05-12T18:04:20.352Z,10.30
2019-05-12T18:06:54.858Z,13.80
2019-05-12T18:09:30.551Z,13.27
2019-05-12T18:12:01.708Z,11.23
2019-05-12T18:14:45.514Z,10.77
2019-05-12T18:17:15.901Z,11.90
2019-05-12T18:19:56.513Z,9.60
2019-05-12T18:22:30.868Z,11.30
2019-05-12T18:25:04.304Z,9.53
2019-05-12T18:27:44.621Z,13.10
2019-05-12T18:30:18.840Z,10.53
2019-05-12T18:32:55.096Z,7.30
2019-05-12T18:35:25.632Z,7.60
2019-05-12T18:37:58.840Z,6.97
2019-05-12T18:40:34.218Z,11.37
2019-05-12T18:43:06.452Z,7.27
2019-05-12T18:45:37.352Z,7.17
2019-05-12T18:48:20.289Z,7.30
2019-05-12T18:50:55.662Z,7.10
2019-05-12T18:53:36.946Z,6.67
2019-05-12T18:56:19.774Z,8.27
2019-05-12T18:58:48.854Z,7.20
2019-05-12T19:01:21.022Z,9.03
2019-05-12T19:03:57.837Z,7.90
2019-05-12T19:06:43.977Z,10.60
2019-05-12T19:09:16.993Z,7.60
2019-05-12T19:11:55.931Z,6.27
2019-05-12T19:14:34.797Z,9.40
2019-05-12T19:16:59.297Z,9.63
2019-05-12T19:19:34.915Z,10.90
2019-05-12T19:22:17.244Z,8.53
2019-05-12T19:24:56.692Z,9.70
2019-05-12T19:27:27.457Z,12.47
2019-05-12T19:30:04.495Z,16.20
2019-05-12T19:32:37.571Z,18.07
2019-05-12T19:35:17.942Z,11.87
2019-05-12T19:37:49.702Z,14.63
2019-05-12T19:40:23.794Z,9.00
2019-05-12T19:43:03.500Z,9.70
2019-05-12T19:45:36.242Z,9.10
2019-05-12T19:48:22.063Z,13.10
2019-05-12T19:50:44.417Z,9.60
2019-05-12T19:53:23.913Z,8.57
2019-05-12T19:55:54.566Z,8.07
2019-05-12T19:58:34.027Z,7.33
2019-05-12T20:01:08.780Z,9.67
2019-05-12T20:03:40.610Z,10.00
2019-05-12T20:06:13.712Z,15.13
2019-05-12T20:09:03.701Z,19.87
2019-05-12T20:11:31.441Z,12.23
2019-05-12T20:13:59.574Z,13.47
2019-05-12T20:16:34.608Z,12.90
2019-05-12T20:19:06.311Z,10.87
2019-05-12T20:21:43.787Z,13.63
2019-05-12T20:24:25.407Z,12.30
2019-05-12T20:26:56.163Z,9.97
2019-05-12T20:29:33.517Z,10.60
2019-05-12T20:32:04.844Z,10.83
2019-05-12T20:34:47.975Z,11.13
2019-05-12T20:37:16.693Z,14.30
2019-05-12T20:40:00.190Z,18.87
2019-05-12T20:42:33.960Z,18.03
2019-05-12T20:45:03.072Z,16.33
2019-05-12T20:47:39.206Z,9.53
2019-05-12T20:50:11.330Z,13.03
2019-05-12T20:52:51.230Z,15.43
2019-05-12T20:55:19.747Z,12.57
2019-05-12T20:58:00.738Z,9.93
2019-05-12T21:00:33.576Z,11.90
2019-05-12T21:03:04.452Z,11.03
2019-05-12T21:05:35.404Z,12.27
2019-05-12T21:08:11.692Z,9.90
2019-05-12T21:10:38.637Z,11.50
2019-05-12T21:13:09.784Z,12.83
2019-05-12T21:15:42.689Z,14.07
2019-05-12T21:18:14.718Z,16.23
2019-05-12T21:20:46.311Z,15.07
2019-05-12T21:23:17.775Z,11.50
2019-05-12T21:25:52.503Z,13.83
2019-05-12T21:28:20.695Z,15.77
2019-05-12T21:30:53.044Z,16.63
2019-05-12T21:33:24.045Z,12.43
2019-05-12T21:35:54.886Z,15.60
2019-05-12T21:38:29.608Z,15.67
2019-05-12T21:41:02.068Z,13.40
2019-05-12T21:43:30.546Z,16.77
2019-05-12T21:46:06.689Z,15.20
2019-05-12T21:48:34.039Z,13.97
2019-05-12T21:51:09.828Z,16.27
2019-05-12T21:53:37.274Z,16.97
2019-05-12T21:56:08.007Z,13.37
2019-05-12T21:58:45.465Z,15.63
2019-05-12T22:01:13.573Z,15.00
2019-05-12T22:03:51.662Z,17.43
2019-05-12T22:06:21.540Z,12.77
2019-05-12T22:08:55.378Z,13.87
2019-05-12T22:11:24.012Z,14.03
2019-05-12T22:13:59.802Z,13.33
2019-05-12T22:16:29.734Z,14.83
2019-05-12T22:18:59.671Z,16.97
2019-05-12T22:21:30.278Z,15.13
2019-05-12T22:24:03.926Z,14.60
2019-05-12T22:26:39.669Z,12.97
2019-05-12T22:29:07.283Z,12.33
2019-05-12T22:31:38.764Z,16.00
2019-05-12T22:34:10.391Z,11.53
2019-05-12T22:36:45.393Z,15.93
2019-05-12T22:39:14.353Z,16.43
2019-05-12T22:41:44.953Z,13.00
2019-05-12T22:44:20.845Z,13.13
2019-05-12T22:46:48.087Z,16.33
2019-05-12T22:49:21.054Z,13.50
2019-05-12T22:51:56.615Z,12.03
2019-05-12T22:54:24.362Z,18.40
2019-05-12T22:56:56.925Z,13.77
2019-05-12T22:59:34.398Z,16.07
2019-05-12T23:02:00.027Z,15.87
2019-05-12T23:04:35.462Z,14.80
2019-05-12T23:07:02.802Z,12.27
2019-05-12T23:09:34.065Z,21.10
2019-05-12T23:12:09.620Z,15.63
2019-05-12T23:14:37.201Z,14.67
2019-05-12T23:17:07.882Z,14.13
2019-05-12T23:19:43.035Z,17.23
2019-05-12T23:22:10.729Z,12.73
2019-05-12T23:24:41.282Z,11.73
2019-05-12T23:27:13.635Z,18.20
2019-05-12T23:29:44.522Z,17.10
2019-05-12T23:32:15.328Z,15.13
2019-05-12T23:34:53.949Z,16.60
2019-05-12T23:37:18.112Z,15.47
2019-05-12T23:39:48.797Z,15.57
2019-05-12T23:42:19.467Z,14.00
2019-05-12T23:44:49.941Z,17.70
2019-05-12T23:47:20.585Z,14.83
2019-05-12T23:49:53.119Z,15.97
2019-05-12T23:52:24.088Z,17.63
2019-05-12T23:54:54.701Z,13.53
2019-05-12T23:57:25.361Z,12.17
2019-05-12T23:59:55.991Z,13.23
